sensor_id;sensor_type;location;lat;lon;timestamp;pressure;altitude;pressure_sealevel;temperature;humidity
48041;BME280;33815;48.386;11.738;2023-10-08T00:02:23;97233.34;;;15.95;65.97
48041;BME280;33815;48.386;11.738;2023-10-08T00:04:50;97219.06;;;15.89;65.94
48041;BME280;33815;48.386;11.738;2023-10-08T00:07:20;97234.47;;;16.09;65.84
48041;BME280;33815;48.386;11.738;2023-10-08T00:09:47;97225.94;;;15.99;65.99
48041;BME280;33815;48.386;11.738;2023-10-08T00:12:12;97223.63;;;16.04;65.56
48041;BME280;33815;48.386;11.738;2023-10-08T00:14:38;97224.44;;;15.96;65.07
48041;BME280;33815;48.386;11.738;2023-10-08T00:17:11;97220.66;;;15.99;65.07
48041;BME280;33815;48.386;11.738;2023-10-08T00:19:36;97233.47;;;16.02;65.48
48041;BME280;33815;48.386;11.738;2023-10-08T00:22:03;97217.41;;;15.88;65.89
48041;BME280;33815;48.386;11.738;2023-10-08T00:24:31;97214.78;;;15.97;64.80
48041;BME280;33815;48.386;11.738;2023-10-08T00:26:58;97209.50;;;16.05;64.67
48041;BME280;33815;48.386;11.738;2023-10-08T00:29:25;97216.44;;;15.98;64.78
48041;BME280;33815;48.386;11.738;2023-10-08T00:31:51;97232.16;;;16.06;64.54
48041;BME280;33815;48.386;11.738;2023-10-08T00:34:18;97227.91;;;16.05;64.54
48041;BME280;33815;48.386;11.738;2023-10-08T00:36:46;97226.09;;;16.05;64.48
48041;BME280;33815;48.386;11.738;2023-10-08T00:39:13;97230.72;;;16.03;64.65
48041;BME280;33815;48.386;11.738;2023-10-08T00:41:41;97223.13;;;16.00;64.80
48041;BME280;33815;48.386;11.738;2023-10-08T00:44:11;97231.22;;;15.90;65.53
48041;BME280;33815;48.386;11.738;2023-10-08T00:47:04;97228.56;;;15.90;65.18
48041;BME280;33815;48.386;11.738;2023-10-08T00:49:30;97215.78;;;15.79;65.53
48041;BME280;33815;48.386;11.738;2023-10-08T00:52:09;97226.44;;;16.02;64.21
48041;BME280;33815;48.386;11.738;2023-10-08T00:54:35;97215.44;;;15.90;65.24
48041;BME280;33815;48.386;11.738;2023-10-08T00:57:15;97211.97;;;15.98;64.38
48041;BME280;33815;48.386;11.738;2023-10-08T00:59:46;97217.69;;;16.02;63.97
48041;BME280;33815;48.386;11.738;2023-10-08T01:02:22;97213.91;;;16.04;64.33
48041;BME280;33815;48.386;11.738;2023-10-08T01:04:50;97218.72;;;16.01;65.09
48041;BME280;33815;48.386;11.738;2023-10-08T01:07:16;97211.81;;;15.91;64.77
48041;BME280;33815;48.386;11.738;2023-10-08T01:09:43;97201.13;;;15.93;64.76
48041;BME280;33815;48.386;11.738;2023-10-08T01:15:09;97211.00;;;15.99;65.15
48041;BME280;33815;48.386;11.738;2023-10-08T01:17:53;97212.44;;;16.02;65.13
48041;BME280;33815;48.386;11.738;2023-10-08T01:20:25;97201.97;;;15.93;65.25
48041;BME280;33815;48.386;11.738;2023-10-08T01:23:07;97209.19;;;16.00;65.62
48041;BME280;33815;48.386;11.738;2023-10-08T01:25:39;97203.72;;;16.09;65.19
48041;BME280;33815;48.386;11.738;2023-10-08T01:28:06;97209.31;;;16.06;65.50
48041;BME280;33815;48.386;11.738;2023-10-08T01:30:43;97202.06;;;16.08;65.45
48041;BME280;33815;48.386;11.738;2023-10-08T01:33:13;97182.25;;;15.98;65.09
48041;BME280;33815;48.386;11.738;2023-10-08T01:35:41;97191.09;;;16.05;64.99
48041;BME280;33815;48.386;11.738;2023-10-08T01:38:07;97184.22;;;15.96;65.20
48041;BME280;33815;48.386;11.738;2023-10-08T01:40:38;97184.88;;;15.98;64.83
48041;BME280;33815;48.386;11.738;2023-10-08T01:43:03;97173.19;;;16.00;64.99
48041;BME280;33815;48.386;11.738;2023-10-08T01:45:30;97191.53;;;16.17;64.18
48041;BME280;33815;48.386;11.738;2023-10-08T01:47:57;97194.00;;;16.18;63.56
48041;BME280;33815;48.386;11.738;2023-10-08T01:50:22;97185.44;;;16.24;62.93
48041;BME280;33815;48.386;11.738;2023-10-08T01:52:50;97188.34;;;16.30;63.19
48041;BME280;33815;48.386;11.738;2023-10-08T01:55:18;97185.94;;;16.20;63.41
48041;BME280;33815;48.386;11.738;2023-10-08T01:57:49;97192.47;;;16.24;63.04
48041;BME280;33815;48.386;11.738;2023-10-08T02:00:18;97183.28;;;16.20;62.70
48041;BME280;33815;48.386;11.738;2023-10-08T02:02:47;97186.28;;;16.17;63.31
48041;BME280;33815;48.386;11.738;2023-10-08T02:05:12;97192.31;;;16.25;61.93
48041;BME280;33815;48.386;11.738;2023-10-08T02:07:41;97188.69;;;16.26;61.94
48041;BME280;33815;48.386;11.738;2023-10-08T02:10:09;97184.72;;;16.31;61.97
48041;BME280;33815;48.386;11.738;2023-10-08T02:12:37;97186.72;;;16.29;61.33
48041;BME280;33815;48.386;11.738;2023-10-08T02:15:03;97180.00;;;16.26;60.99
48041;BME280;33815;48.386;11.738;2023-10-08T02:17:28;97165.06;;;16.18;61.34
48041;BME280;33815;48.386;11.738;2023-10-08T02:19:53;97172.94;;;16.18;60.83
48041;BME280;33815;48.386;11.738;2023-10-08T02:22:18;97179.16;;;16.25;60.89
48041;BME280;33815;48.386;11.738;2023-10-08T02:24:44;97178.53;;;16.23;60.91
48041;BME280;33815;48.386;11.738;2023-10-08T02:27:10;97175.59;;;16.10;61.19
48041;BME280;33815;48.386;11.738;2023-10-08T02:29:35;97174.59;;;16.19;60.83
48041;BME280;33815;48.386;11.738;2023-10-08T02:32:01;97177.75;;;16.15;61.12
48041;BME280;33815;48.386;11.738;2023-10-08T02:34:26;97177.06;;;16.21;60.51
48041;BME280;33815;48.386;11.738;2023-10-08T02:36:51;97178.22;;;16.10;60.60
48041;BME280;33815;48.386;11.738;2023-10-08T02:39:17;97161.81;;;16.08;60.57
48041;BME280;33815;48.386;11.738;2023-10-08T02:41:52;97185.94;;;16.20;59.91
48041;BME280;33815;48.386;11.738;2023-10-08T02:44:18;97177.28;;;16.03;60.76
48041;BME280;33815;48.386;11.738;2023-10-08T02:46:47;97185.16;;;16.11;60.90
48041;BME280;33815;48.386;11.738;2023-10-08T02:49:17;97170.31;;;16.18;59.83
48041;BME280;33815;48.386;11.738;2023-10-08T02:51:49;97183.63;;;16.17;59.69
48041;BME280;33815;48.386;11.738;2023-10-08T02:54:16;97176.88;;;16.22;59.74
48041;BME280;33815;48.386;11.738;2023-10-08T02:56:53;97174.94;;;16.16;59.34
48041;BME280;33815;48.386;11.738;2023-10-08T02:59:28;97181.69;;;16.19;59.85
48041;BME280;33815;48.386;11.738;2023-10-08T03:01:53;97181.53;;;16.12;59.81
48041;BME280;33815;48.386;11.738;2023-10-08T03:04:21;97186.59;;;16.22;59.51
48041;BME280;33815;48.386;11.738;2023-10-08T03:06:48;97190.06;;;16.14;58.75
48041;BME280;33815;48.386;11.738;2023-10-08T03:09:16;97173.00;;;16.02;59.61
48041;BME280;33815;48.386;11.738;2023-10-08T03:11:54;97184.56;;;15.92;59.77
48041;BME280;33815;48.386;11.738;2023-10-08T03:14:20;97177.63;;;16.00;59.51
48041;BME280;33815;48.386;11.738;2023-10-08T03:16:53;97191.41;;;16.02;59.76
48041;BME280;33815;48.386;11.738;2023-10-08T03:19:21;97190.44;;;16.03;59.85
48041;BME280;33815;48.386;11.738;2023-10-08T03:21:47;97185.03;;;15.96;59.74
48041;BME280;33815;48.386;11.738;2023-10-08T03:24:23;97180.09;;;15.93;59.79
48041;BME280;33815;48.386;11.738;2023-10-08T03:26:58;97177.66;;;15.91;59.56
48041;BME280;33815;48.386;11.738;2023-10-08T03:29:45;97182.28;;;15.89;60.25
48041;BME280;33815;48.386;11.738;2023-10-08T03:32:12;97175.22;;;15.82;60.20
48041;BME280;33815;48.386;11.738;2023-10-08T03:34:48;97176.22;;;15.72;60.37
48041;BME280;33815;48.386;11.738;2023-10-08T03:37:15;97178.50;;;15.67;60.75
48041;BME280;33815;48.386;11.738;2023-10-08T03:40:01;97174.72;;;15.70;60.63
48041;BME280;33815;48.386;11.738;2023-10-08T03:42:50;97180.00;;;15.62;61.07
48041;BME280;33815;48.386;11.738;2023-10-08T03:45:15;97186.56;;;15.66;60.86
48041;BME280;33815;48.386;11.738;2023-10-08T03:47:51;97182.97;;;15.58;61.69
48041;BME280;33815;48.386;11.738;2023-10-08T03:50:31;97186.25;;;15.52;62.04
48041;BME280;33815;48.386;11.738;2023-10-08T03:53:07;97192.47;;;15.59;61.64
48041;BME280;33815;48.386;11.738;2023-10-08T03:55:39;97189.38;;;15.48;62.19
48041;BME280;33815;48.386;11.738;2023-10-08T03:58:08;97170.19;;;15.47;61.87
48041;BME280;33815;48.386;11.738;2023-10-08T04:00:39;97174.44;;;15.48;61.83
48041;BME280;33815;48.386;11.738;2023-10-08T04:03:08;97173.00;;;15.37;62.04
48041;BME280;33815;48.386;11.738;2023-10-08T04:05:38;97162.31;;;15.31;62.84
48041;BME280;33815;48.386;11.738;2023-10-08T04:08:31;97180.53;;;15.40;62.89
48041;BME280;33815;48.386;11.738;2023-10-08T04:11:11;97163.97;;;15.32;62.62
48041;BME280;33815;48.386;11.738;2023-10-08T04:14:01;97158.72;;;15.32;62.20
48041;BME280;33815;48.386;11.738;2023-10-08T04:16:28;97166.25;;;15.27;62.69
48041;BME280;33815;48.386;11.738;2023-10-08T04:18:56;97178.56;;;15.26;62.67
48041;BME280;33815;48.386;11.738;2023-10-08T04:21:22;97178.88;;;15.23;62.96
48041;BME280;33815;48.386;11.738;2023-10-08T04:23:52;97182.19;;;15.25;63.47
48041;BME280;33815;48.386;11.738;2023-10-08T04:26:19;97192.84;;;15.23;62.74
48041;BME280;33815;48.386;11.738;2023-10-08T04:28:50;97199.59;;;15.18;63.55
48041;BME280;33815;48.386;11.738;2023-10-08T04:31:19;97176.28;;;15.06;63.12
48041;BME280;33815;48.386;11.738;2023-10-08T04:33:49;97200.03;;;15.05;63.44
48041;BME280;33815;48.386;11.738;2023-10-08T04:36:16;97185.63;;;14.93;64.30
48041;BME280;33815;48.386;11.738;2023-10-08T04:38:43;97196.94;;;14.93;64.71
48041;BME280;33815;48.386;11.738;2023-10-08T04:41:10;97204.00;;;14.93;64.31
48041;BME280;33815;48.386;11.738;2023-10-08T04:43:36;97206.91;;;14.89;66.94
48041;BME280;33815;48.386;11.738;2023-10-08T04:46:03;97210.22;;;14.83;65.80
48041;BME280;33815;48.386;11.738;2023-10-08T04:48:47;97201.97;;;14.78;66.31
48041;BME280;33815;48.386;11.738;2023-10-08T04:51:15;97212.47;;;14.78;65.42
48041;BME280;33815;48.386;11.738;2023-10-08T04:53:43;97221.50;;;14.76;68.36
48041;BME280;33815;48.386;11.738;2023-10-08T04:56:12;97229.22;;;14.69;68.10
48041;BME280;33815;48.386;11.738;2023-10-08T04:58:49;97226.53;;;14.61;70.14
48041;BME280;33815;48.386;11.738;2023-10-08T05:01:17;97219.28;;;14.46;70.78
48041;BME280;33815;48.386;11.738;2023-10-08T05:03:49;97237.63;;;14.46;71.74
48041;BME280;33815;48.386;11.738;2023-10-08T05:06:20;97226.28;;;14.37;72.98
48041;BME280;33815;48.386;11.738;2023-10-08T05:09:07;97234.13;;;14.37;74.49
48041;BME280;33815;48.386;11.738;2023-10-08T05:11:52;97239.50;;;14.28;75.62
48041;BME280;33815;48.386;11.738;2023-10-08T05:14:18;97237.16;;;14.16;76.91
48041;BME280;33815;48.386;11.738;2023-10-08T05:17:00;97251.06;;;14.09;78.93
48041;BME280;33815;48.386;11.738;2023-10-08T05:19:29;97250.22;;;14.08;81.06
48041;BME280;33815;48.386;11.738;2023-10-08T05:22:10;97236.06;;;13.93;81.64
48041;BME280;33815;48.386;11.738;2023-10-08T05:24:48;97241.44;;;13.91;81.94
48041;BME280;33815;48.386;11.738;2023-10-08T05:27:34;97243.16;;;14.00;77.25
48041;BME280;33815;48.386;11.738;2023-10-08T05:30:04;97253.00;;;14.07;75.76
48041;BME280;33815;48.386;11.738;2023-10-08T05:32:43;97243.56;;;14.22;72.68
48041;BME280;33815;48.386;11.738;2023-10-08T05:35:33;97260.84;;;14.33;71.85
48041;BME280;33815;48.386;11.738;2023-10-08T05:38:12;97263.69;;;14.48;69.32
48041;BME280;33815;48.386;11.738;2023-10-08T05:40:42;97278.31;;;14.59;70.23
48041;BME280;33815;48.386;11.738;2023-10-08T05:43:24;97276.69;;;14.57;69.24
48041;BME280;33815;48.386;11.738;2023-10-08T05:46:19;97287.53;;;14.63;70.07
48041;BME280;33815;48.386;11.738;2023-10-08T05:48:51;97285.47;;;14.75;69.35
48041;BME280;33815;48.386;11.738;2023-10-08T05:51:31;97279.69;;;14.71;69.49
48041;BME280;33815;48.386;11.738;2023-10-08T05:57:00;97285.16;;;14.86;69.23
48041;BME280;33815;48.386;11.738;2023-10-08T05:59:38;97257.78;;;14.88;69.36
48041;BME280;33815;48.386;11.738;2023-10-08T06:04:54;97267.97;;;14.92;68.62
48041;BME280;33815;48.386;11.738;2023-10-08T06:07:41;97269.63;;;14.93;68.70
48041;BME280;33815;48.386;11.738;2023-10-08T06:10:14;97277.34;;;15.02;68.34
48041;BME280;33815;48.386;11.738;2023-10-08T06:13:10;97268.59;;;14.94;68.77
48041;BME280;33815;48.386;11.738;2023-10-08T06:15:56;97264.50;;;14.99;69.27
48041;BME280;33815;48.386;11.738;2023-10-08T06:18:26;97246.81;;;15.01;68.03
48041;BME280;33815;48.386;11.738;2023-10-08T06:20:56;97241.75;;;15.08;67.82
48041;BME280;33815;48.386;11.738;2023-10-08T06:23:24;97267.00;;;15.17;68.24
48041;BME280;33815;48.386;11.738;2023-10-08T06:25:50;97277.84;;;15.14;68.67
48041;BME280;33815;48.386;11.738;2023-10-08T06:28:22;97282.09;;;15.07;70.46
48041;BME280;33815;48.386;11.738;2023-10-08T06:30:52;97271.59;;;15.07;71.11
48041;BME280;33815;48.386;11.738;2023-10-08T06:33:24;97264.38;;;15.09;70.66
48041;BME280;33815;48.386;11.738;2023-10-08T06:35:58;97266.34;;;15.07;70.13
48041;BME280;33815;48.386;11.738;2023-10-08T06:38:31;97270.13;;;15.13;70.04
48041;BME280;33815;48.386;11.738;2023-10-08T06:41:00;97281.44;;;15.13;69.89
48041;BME280;33815;48.386;11.738;2023-10-08T06:43:28;97275.56;;;15.19;70.23
48041;BME280;33815;48.386;11.738;2023-10-08T06:45:54;97274.25;;;15.48;69.43
48041;BME280;33815;48.386;11.738;2023-10-08T06:48:23;97274.44;;;15.55;69.67
48041;BME280;33815;48.386;11.738;2023-10-08T06:50:50;97281.34;;;15.64;70.19
48041;BME280;33815;48.386;11.738;2023-10-08T06:53:17;97271.47;;;15.66;69.62
48041;BME280;33815;48.386;11.738;2023-10-08T06:55:46;97289.88;;;15.91;69.25
48041;BME280;33815;48.386;11.738;2023-10-08T06:58:14;97289.69;;;16.09;68.47
48041;BME280;33815;48.386;11.738;2023-10-08T07:00:40;97294.72;;;16.27;66.64
48041;BME280;33815;48.386;11.738;2023-10-08T07:03:12;97291.56;;;16.48;66.19
48041;BME280;33815;48.386;11.738;2023-10-08T07:05:40;97292.50;;;16.55;65.50
48041;BME280;33815;48.386;11.738;2023-10-08T07:08:07;97292.13;;;16.67;65.44
48041;BME280;33815;48.386;11.738;2023-10-08T07:10:33;97288.63;;;16.74;65.88
48041;BME280;33815;48.386;11.738;2023-10-08T07:13:02;97275.69;;;16.65;63.59
48041;BME280;33815;48.386;11.738;2023-10-08T07:15:33;97290.81;;;16.71;63.21
48041;BME280;33815;48.386;11.738;2023-10-08T07:17:59;97289.78;;;16.72;63.04
48041;BME280;33815;48.386;11.738;2023-10-08T07:20:35;97281.88;;;16.72;62.98
48041;BME280;33815;48.386;11.738;2023-10-08T07:23:07;97297.63;;;16.88;61.96
48041;BME280;33815;48.386;11.738;2023-10-08T07:25:45;97290.59;;;16.81;62.69
48041;BME280;33815;48.386;11.738;2023-10-08T07:28:17;97281.41;;;16.76;62.47
48041;BME280;33815;48.386;11.738;2023-10-08T07:30:44;97283.81;;;16.86;61.06
48041;BME280;33815;48.386;11.738;2023-10-08T07:33:10;97277.44;;;16.81;62.00
48041;BME280;33815;48.386;11.738;2023-10-08T07:35:49;97270.06;;;16.68;61.73
48041;BME280;33815;48.386;11.738;2023-10-08T07:38:25;97277.19;;;16.59;62.20
48041;BME280;33815;48.386;11.738;2023-10-08T07:40:52;97288.19;;;16.63;60.97
48041;BME280;33815;48.386;11.738;2023-10-08T07:43:19;97290.81;;;16.71;62.02
48041;BME280;33815;48.386;11.738;2023-10-08T07:45:45;97276.97;;;16.69;62.20
48041;BME280;33815;48.386;11.738;2023-10-08T07:48:11;97295.00;;;16.80;62.91
48041;BME280;33815;48.386;11.738;2023-10-08T07:50:44;97292.03;;;16.83;62.84
48041;BME280;33815;48.386;11.738;2023-10-08T07:53:12;97295.50;;;16.92;62.98
48041;BME280;33815;48.386;11.738;2023-10-08T07:55:46;97287.88;;;16.97;63.56
48041;BME280;33815;48.386;11.738;2023-10-08T07:58:15;97287.69;;;16.99;62.01
48041;BME280;33815;48.386;11.738;2023-10-08T08:00:41;97280.66;;;16.99;61.63
48041;BME280;33815;48.386;11.738;2023-10-08T08:03:07;97282.63;;;16.97;62.21
48041;BME280;33815;48.386;11.738;2023-10-08T08:05:32;97300.06;;;16.98;63.28
48041;BME280;33815;48.386;11.738;2023-10-08T08:08:02;97298.53;;;17.04;63.13
48041;BME280;33815;48.386;11.738;2023-10-08T08:10:31;97289.66;;;17.05;63.71
48041;BME280;33815;48.386;11.738;2023-10-08T08:13:02;97299.38;;;17.04;63.20
48041;BME280;33815;48.386;11.738;2023-10-08T08:15:30;97304.03;;;16.94;63.84
48041;BME280;33815;48.386;11.738;2023-10-08T08:17:55;97311.94;;;16.94;63.72
48041;BME280;33815;48.386;11.738;2023-10-08T08:20:20;97319.66;;;16.95;64.35
48041;BME280;33815;48.386;11.738;2023-10-08T08:23:00;97322.59;;;17.01;64.12
48041;BME280;33815;48.386;11.738;2023-10-08T08:25:36;97322.38;;;17.10;64.31
48041;BME280;33815;48.386;11.738;2023-10-08T08:28:10;97305.88;;;17.17;63.99
48041;BME280;33815;48.386;11.738;2023-10-08T08:30:42;97298.91;;;17.24;64.16
48041;BME280;33815;48.386;11.738;2023-10-08T08:33:12;97299.66;;;17.41;64.13
48041;BME280;33815;48.386;11.738;2023-10-08T08:35:37;97297.34;;;17.61;63.36
48041;BME280;33815;48.386;11.738;2023-10-08T08:38:03;97300.50;;;17.56;63.17
48041;BME280;33815;48.386;11.738;2023-10-08T08:40:31;97303.34;;;17.70;62.63
48041;BME280;33815;48.386;11.738;2023-10-08T08:42:57;97309.56;;;17.77;62.68
48041;BME280;33815;48.386;11.738;2023-10-08T08:45:27;97310.16;;;17.87;61.71
48041;BME280;33815;48.386;11.738;2023-10-08T08:47:56;97317.84;;;17.97;60.74
48041;BME280;33815;48.386;11.738;2023-10-08T08:50:22;97311.75;;;18.11;61.83
48041;BME280;33815;48.386;11.738;2023-10-08T08:52:47;97310.13;;;18.25;60.23
48041;BME280;33815;48.386;11.738;2023-10-08T08:55:13;97322.50;;;18.25;60.73
48041;BME280;33815;48.386;11.738;2023-10-08T08:57:42;97335.53;;;18.26;62.35
48041;BME280;33815;48.386;11.738;2023-10-08T09:00:11;97323.13;;;18.12;62.53
48041;BME280;33815;48.386;11.738;2023-10-08T09:02:44;97341.81;;;18.25;61.88
48041;BME280;33815;48.386;11.738;2023-10-08T09:05:10;97349.34;;;18.28;63.23
48041;BME280;33815;48.386;11.738;2023-10-08T09:08:01;97351.81;;;18.30;62.36
48041;BME280;33815;48.386;11.738;2023-10-08T09:10:31;97338.34;;;18.40;61.81
48041;BME280;33815;48.386;11.738;2023-10-08T09:13:02;97335.53;;;18.56;61.24
48041;BME280;33815;48.386;11.738;2023-10-08T09:15:28;97334.53;;;18.57;60.70
48041;BME280;33815;48.386;11.738;2023-10-08T09:17:55;97336.63;;;18.47;60.83
48041;BME280;33815;48.386;11.738;2023-10-08T09:20:21;97319.97;;;18.46;59.83
48041;BME280;33815;48.386;11.738;2023-10-08T09:23:05;97334.53;;;18.57;60.00
48041;BME280;33815;48.386;11.738;2023-10-08T09:25:32;97331.91;;;18.57;60.03
48041;BME280;33815;48.386;11.738;2023-10-08T09:27:58;97327.59;;;18.71;58.77
48041;BME280;33815;48.386;11.738;2023-10-08T09:30:23;97334.97;;;18.91;59.24
48041;BME280;33815;48.386;11.738;2023-10-08T09:32:51;97343.88;;;19.05;59.66
48041;BME280;33815;48.386;11.738;2023-10-08T09:35:17;97351.41;;;19.23;58.09
48041;BME280;33815;48.386;11.738;2023-10-08T09:37:44;97349.59;;;19.23;58.32
48041;BME280;33815;48.386;11.738;2023-10-08T09:40:11;97356.78;;;19.29;57.79
48041;BME280;33815;48.386;11.738;2023-10-08T09:42:37;97353.63;;;19.19;56.81
48041;BME280;33815;48.386;11.738;2023-10-08T09:45:03;97358.31;;;19.39;57.36
48041;BME280;33815;48.386;11.738;2023-10-08T09:47:36;97365.41;;;19.38;56.11
48041;BME280;33815;48.386;11.738;2023-10-08T09:50:05;97362.38;;;19.41;54.94
48041;BME280;33815;48.386;11.738;2023-10-08T09:52:47;97364.91;;;19.49;55.84
48041;BME280;33815;48.386;11.738;2023-10-08T09:55:18;97349.91;;;19.57;54.60
48041;BME280;33815;48.386;11.738;2023-10-08T09:57:44;97324.78;;;19.82;53.75
48041;BME280;33815;48.386;11.738;2023-10-08T10:00:10;97325.38;;;19.84;52.44
48041;BME280;33815;48.386;11.738;2023-10-08T10:02:41;97337.16;;;19.82;53.77
48041;BME280;33815;48.386;11.738;2023-10-08T10:05:13;97346.22;;;19.73;54.14
48041;BME280;33815;48.386;11.738;2023-10-08T10:07:47;97368.63;;;19.77;53.30
48041;BME280;33815;48.386;11.738;2023-10-08T10:10:30;97378.16;;;19.71;54.59
48041;BME280;33815;48.386;11.738;2023-10-08T10:13:08;97370.59;;;19.68;55.86
48041;BME280;33815;48.386;11.738;2023-10-08T10:15:36;97382.31;;;19.80;52.16
48041;BME280;33815;48.386;11.738;2023-10-08T10:18:28;97371.41;;;19.68;52.92
48041;BME280;33815;48.386;11.738;2023-10-08T10:20:59;97365.84;;;19.63;52.74
48041;BME280;33815;48.386;11.738;2023-10-08T10:31:32;97365.34;;;19.75;54.05
48041;BME280;33815;48.386;11.738;2023-10-08T10:34:04;97363.47;;;19.68;54.21
48041;BME280;33815;48.386;11.738;2023-10-08T10:36:30;97353.13;;;19.52;55.29
48041;BME280;33815;48.386;11.738;2023-10-08T10:38:57;97346.59;;;19.48;55.45
48041;BME280;33815;48.386;11.738;2023-10-08T10:41:22;97343.06;;;19.41;56.52
48041;BME280;33815;48.386;11.738;2023-10-08T10:43:47;97336.38;;;19.66;54.64
48041;BME280;33815;48.386;11.738;2023-10-08T10:46:18;97331.69;;;19.62;54.75
48041;BME280;33815;48.386;11.738;2023-10-08T10:48:56;97337.91;;;19.54;54.62
48041;BME280;33815;48.386;11.738;2023-10-08T10:51:40;97325.66;;;19.68;54.78
48041;BME280;33815;48.386;11.738;2023-10-08T10:54:06;97323.13;;;19.81;54.89
48041;BME280;33815;48.386;11.738;2023-10-08T10:56:35;97315.66;;;19.85;53.92
48041;BME280;33815;48.386;11.738;2023-10-08T10:59:08;97304.69;;;19.88;55.13
48041;BME280;33815;48.386;11.738;2023-10-08T11:01:52;97326.75;;;20.02;54.61
48041;BME280;33815;48.386;11.738;2023-10-08T11:04:20;97329.97;;;19.97;54.56
48041;BME280;33815;48.386;11.738;2023-10-08T11:06:54;97327.09;;;19.92;54.61
48041;BME280;33815;48.386;11.738;2023-10-08T11:09:25;97325.00;;;19.88;55.09
48041;BME280;33815;48.386;11.738;2023-10-08T11:12:16;97298.81;;;19.71;54.85
48041;BME280;33815;48.386;11.738;2023-10-08T11:14:48;97316.25;;;19.65;54.16
48041;BME280;33815;48.386;11.738;2023-10-08T11:17:16;97302.41;;;19.63;55.49
48041;BME280;33815;48.386;11.738;2023-10-08T11:19:43;97311.41;;;19.69;54.58
48041;BME280;33815;48.386;11.738;2023-10-08T11:22:11;97306.97;;;19.76;54.62
48041;BME280;33815;48.386;11.738;2023-10-08T11:24:41;97320.47;;;19.81;55.25
48041;BME280;33815;48.386;11.738;2023-10-08T11:27:10;97317.22;;;19.79;55.48
48041;BME280;33815;48.386;11.738;2023-10-08T11:29:46;97309.59;;;19.69;54.31
48041;BME280;33815;48.386;11.738;2023-10-08T11:32:12;97320.78;;;19.72;54.59
48041;BME280;33815;48.386;11.738;2023-10-08T11:34:45;97320.50;;;20.10;54.03
48041;BME280;33815;48.386;11.738;2023-10-08T11:37:15;97350.56;;;20.30;55.16
48041;BME280;33815;48.386;11.738;2023-10-08T11:39:51;97343.22;;;20.61;54.08
48041;BME280;33815;48.386;11.738;2023-10-08T11:42:18;97338.16;;;20.66;53.34
48041;BME280;33815;48.386;11.738;2023-10-08T11:44:58;97329.56;;;20.57;51.96
48041;BME280;33815;48.386;11.738;2023-10-08T11:47:42;97345.09;;;20.67;52.66
48041;BME280;33815;48.386;11.738;2023-10-08T11:50:09;97337.75;;;20.62;52.75
48041;BME280;33815;48.386;11.738;2023-10-08T11:52:38;97338.63;;;20.69;53.49
48041;BME280;33815;48.386;11.738;2023-10-08T11:55:08;97337.16;;;20.67;52.71
48041;BME280;33815;48.386;11.738;2023-10-08T11:57:33;97324.91;;;20.66;52.30
48041;BME280;33815;48.386;11.738;2023-10-08T12:00:04;97346.28;;;20.64;53.83
48041;BME280;33815;48.386;11.738;2023-10-08T12:02:47;97338.75;;;20.61;52.68
48041;BME280;33815;48.386;11.738;2023-10-08T12:05:13;97344.44;;;20.58;52.16
48041;BME280;33815;48.386;11.738;2023-10-08T12:07:47;97330.06;;;20.11;52.97
48041;BME280;33815;48.386;11.738;2023-10-08T12:10:13;97341.31;;;20.19;54.53
48041;BME280;33815;48.386;11.738;2023-10-08T12:12:39;97342.53;;;20.17;55.06
48041;BME280;33815;48.386;11.738;2023-10-08T12:15:05;97336.63;;;20.15;54.33
48041;BME280;33815;48.386;11.738;2023-10-08T12:17:33;97324.16;;;20.09;54.19
48041;BME280;33815;48.386;11.738;2023-10-08T12:20:07;97326.69;;;19.95;55.77
48041;BME280;33815;48.386;11.738;2023-10-08T12:22:51;97330.88;;;19.83;56.14
48041;BME280;33815;48.386;11.738;2023-10-08T12:25:17;97324.00;;;19.67;56.68
48041;BME280;33815;48.386;11.738;2023-10-08T12:27:42;97334.00;;;19.72;58.03
48041;BME280;33815;48.386;11.738;2023-10-08T12:30:08;97340.28;;;19.71;56.82
48041;BME280;33815;48.386;11.738;2023-10-08T12:32:36;97316.88;;;19.67;57.53
48041;BME280;33815;48.386;11.738;2023-10-08T12:35:05;97339.66;;;19.83;57.76
48041;BME280;33815;48.386;11.738;2023-10-08T12:37:38;97331.50;;;19.85;57.83
48041;BME280;33815;48.386;11.738;2023-10-08T12:40:05;97325.97;;;20.08;58.09
48041;BME280;33815;48.386;11.738;2023-10-08T12:42:59;97326.75;;;20.02;56.81
48041;BME280;33815;48.386;11.738;2023-10-08T12:45:25;97329.34;;;19.95;57.38
48041;BME280;33815;48.386;11.738;2023-10-08T12:47:53;97329.34;;;19.95;59.04
48041;BME280;33815;48.386;11.738;2023-10-08T12:50:21;97311.22;;;19.92;56.28
48041;BME280;33815;48.386;11.738;2023-10-08T12:52:57;97290.19;;;19.84;56.76
48041;BME280;33815;48.386;11.738;2023-10-08T12:55:25;97289.75;;;19.80;56.83
48041;BME280;33815;48.386;11.738;2023-10-08T12:57:52;97304.03;;;19.86;56.69
48041;BME280;33815;48.386;11.738;2023-10-08T13:00:24;97309.59;;;19.69;56.97
48041;BME280;33815;48.386;11.738;2023-10-08T13:02:51;97323.69;;;19.77;57.55
48041;BME280;33815;48.386;11.738;2023-10-08T13:05:22;97329.28;;;19.89;57.31
48041;BME280;33815;48.386;11.738;2023-10-08T13:07:54;97331.63;;;19.77;58.60
48041;BME280;33815;48.386;11.738;2023-10-08T13:10:21;97352.88;;;19.83;57.16
48041;BME280;33815;48.386;11.738;2023-10-08T13:12:47;97350.00;;;20.07;58.31
48041;BME280;33815;48.386;11.738;2023-10-08T13:15:13;97347.19;;;19.87;57.28
48041;BME280;33815;48.386;11.738;2023-10-08T13:17:38;97352.31;;;20.16;57.85
48041;BME280;33815;48.386;11.738;2023-10-08T13:20:09;97344.03;;;20.26;57.22
48041;BME280;33815;48.386;11.738;2023-10-08T13:22:37;97349.31;;;20.26;57.81
48041;BME280;33815;48.386;11.738;2023-10-08T13:25:03;97337.06;;;20.18;58.60
48041;BME280;33815;48.386;11.738;2023-10-08T13:27:30;97344.38;;;20.16;56.38